Time;durP1;ratioP1;P1;durP2;ratioP2;P2;SDS_P1;SDS_P2;PMS_P1;PMS_P2;Temp;Humidity;BMP_temperature;BMP_pressure;BME280_temperature;BME280_humidity;BME280_pressure;Samples;Min_cycle;Max_cycle;Signal;HPM_P1;HPM_P2
2022/08/15 00:00:40;;;;;;;35.25;20.13;;;20.80;83.90;;;;;;6159240;23;20021;-76
2022/08/15 00:03:40;;;;;;;32.42;19.95;;;20.80;83.80;;;;;;6157439;23;20408;-76
2022/08/15 00:06:21;;;;;;;35.88;19.88;;;20.90;83.60;;;;;;6145370;23;20456;-76
2022/08/15 00:08:59;;;;;;;35.50;19.50;;;20.80;83.40;;;;;;6157912;23;20018;-76
2022/08/15 00:11:31;;;;;;;36.10;21.50;;;20.80;83.40;;;;;;6158656;23;20009;-76
2022/08/15 00:14:09;;;;;;;36.28;19.73;;;20.80;83.50;;;;;;6159627;23;20361;-76
2022/08/15 00:16:42;;;;;;;30.52;19.60;;;20.80;83.70;;;;;;6158593;23;20001;-76
2022/08/15 00:19:15;;;;;;;34.30;20.55;;;20.80;83.30;;;;;;6158675;23;20012;-76
2022/08/15 00:21:43;;;;;;;35.58;19.63;;;20.80;83.80;;;;;;6159211;23;20449;-76
2022/08/15 00:24:11;;;;;;;36.65;21.30;;;20.80;83.30;;;;;;6157652;23;20032;-76
2022/08/15 00:26:37;;;;;;;38.60;21.90;;;20.80;83.30;;;;;;6156945;23;20005;-76
2022/08/15 00:29:03;;;;;;;39.20;23.77;;;20.80;83.50;;;;;;6159179;23;20445;-76
2022/08/15 00:31:31;;;;;;;41.58;21.90;;;20.80;83.10;;;;;;6158944;23;20446;-76
2022/08/15 00:34:04;;;;;;;37.53;21.73;;;20.80;83.00;;;;;;6158664;23;20072;-76
2022/08/15 00:36:30;;;;;;;40.35;22.05;;;20.70;83.10;;;;;;6158277;23;20005;-76
2022/08/15 00:38:58;;;;;;;40.50;22.98;;;20.70;82.90;;;;;;6159073;23;20018;-76
2022/08/15 00:41:39;;;;;;;36.67;21.75;;;20.70;82.70;;;;;;6158612;23;20002;-76
2022/08/15 00:44:20;;;;;;;36.60;21.10;;;20.60;83.00;;;;;;6156960;23;20086;-76
2022/08/15 00:46:49;;;;;;;39.22;22.45;;;20.60;82.70;;;;;;6158425;23;20060;-76
2022/08/15 00:49:16;;;;;;;37.93;22.00;;;20.50;83.30;;;;;;6157566;23;20013;-76
2022/08/15 00:51:54;;;;;;;38.60;22.38;;;20.60;83.20;;;;;;6157538;23;20084;-76
2022/08/15 00:54:19;;;;;;;39.38;22.42;;;20.60;83.10;;;;;;6157231;23;20001;-76
2022/08/15 00:56:59;;;;;;;40.55;23.30;;;20.50;83.10;;;;;;6157840;23;20007;-76
2022/08/15 00:59:29;;;;;;;49.33;24.95;;;20.50;83.10;;;;;;6157581;23;20009;-76
2022/08/15 01:02:07;;;;;;;;;;;20.60;82.90;;;;;;6157423;23;20013;-77
2022/08/15 01:04:35;;;;;;;40.25;24.13;;;20.70;82.60;;;;;;6157435;23;20318;-76
2022/08/15 01:07:01;;;;;;;52.38;25.42;;;20.80;82.20;;;;;;6157099;23;20021;-76
2022/08/15 01:09:28;;;;;;;43.88;24.52;;;20.80;81.90;;;;;;6156835;23;20039;-76
2022/08/15 01:12:02;;;;;;;52.88;28.40;;;20.70;81.80;;;;;;6158675;23;20008;-76
2022/08/15 01:14:29;;;;;;;49.78;26.00;;;20.80;81.90;;;;;;6158260;23;20022;-76
2022/08/15 01:16:56;;;;;;;55.25;28.50;;;20.70;81.60;;;;;;6158001;23;20001;-76
2022/08/15 01:19:32;;;;;;;53.30;29.42;;;20.60;82.00;;;;;;6158607;23;20005;-76
2022/08/15 01:22:12;;;;;;;52.55;28.48;;;20.60;82.10;;;;;;6157334;23;20056;-76
2022/08/15 01:25:13;;;;;;;58.72;28.90;;;20.50;82.30;;;;;;6156962;23;20009;-76
2022/08/15 01:27:44;;;;;;;48.97;27.80;;;20.40;82.70;;;;;;6157261;23;20014;-76
2022/08/15 01:30:15;;;;;;;55.50;28.90;;;20.50;82.30;;;;;;6158416;23;19998;-76
2022/08/15 01:32:42;;;;;;;60.28;29.58;;;20.60;82.00;;;;;;6157888;23;20013;-76
2022/08/15 01:35:09;;;;;;;56.97;29.05;;;20.60;81.90;;;;;;6156422;23;20583;-76
2022/08/15 01:37:38;;;;;;;64.65;30.05;;;20.60;82.00;;;;;;6156902;23;20010;-76
2022/08/15 01:40:40;;;;;;;55.22;28.98;;;20.70;81.80;;;;;;6156462;23;20450;-76
2022/08/15 01:43:09;;;;;;;53.13;28.10;;;20.50;82.10;;;;;;6134155;23;20012;-76
2022/08/15 01:45:40;;;;;;;62.00;31.13;;;20.50;82.10;;;;;;6158546;23;20020;-76
2022/08/15 01:48:18;;;;;;;56.28;28.73;;;20.50;82.10;;;;;;6157447;23;20068;-76
2022/08/15 01:50:50;;;;;;;59.47;28.80;;;20.60;81.90;;;;;;6158442;23;20001;-75
2022/08/15 01:53:49;;;;;;;52.88;27.00;;;20.70;81.70;;;;;;6156294;23;20002;-76
2022/08/15 01:56:26;;;;;;;58.50;30.17;;;20.30;82.30;;;;;;6157469;23;20319;-76
2022/08/15 01:59:16;;;;;;;55.85;29.17;;;20.30;82.50;;;;;;6160685;23;20072;-76
2022/08/15 02:01:50;;;;;;;52.97;26.58;;;20.20;82.50;;;;;;6160393;23;20077;-76
2022/08/15 02:04:20;;;;;;;53.70;28.40;;;20.20;82.80;;;;;;6159954;23;20066;-76
2022/08/15 02:06:47;;;;;;;53.15;27.25;;;20.20;82.50;;;;;;6160206;23;20052;-76
2022/08/15 02:09:16;;;;;;;55.40;28.80;;;20.30;82.60;;;;;;6159538;23;20005;-76
2022/08/15 02:11:44;;;;;;;54.20;26.92;;;20.30;82.40;;;;;;6160405;23;20029;-76
2022/08/15 02:14:11;;;;;;;51.15;29.33;;;20.20;82.30;;;;;;6160444;23;20001;-76
2022/08/15 02:16:38;;;;;;;63.70;31.98;;;20.20;82.20;;;;;;6159950;23;20002;-76
2022/08/15 02:19:07;;;;;;;57.00;28.30;;;20.30;82.00;;;;;;6158959;23;20500;-75
2022/08/15 02:21:35;;;;;;;58.47;29.25;;;20.30;81.90;;;;;;6160338;23;20008;-76
2022/08/15 02:24:01;;;;;;;50.13;29.35;;;20.50;81.60;;;;;;6158716;23;20088;-76
2022/08/15 02:26:27;;;;;;;56.03;28.92;;;20.50;81.30;;;;;;6159699;23;20006;-75
2022/08/15 02:28:54;;;;;;;52.63;29.17;;;20.50;80.90;;;;;;6159768;23;20009;-75
2022/08/15 02:31:24;;;;;;;49.20;27.35;;;20.50;80.90;;;;;;6158795;23;20069;-75
2022/08/15 02:33:52;;;;;;;;;;;20.50;80.60;;;;;;6159318;23;20001;-76
2022/08/15 02:36:18;;;;;;;52.95;28.13;;;20.50;80.70;;;;;;6159819;23;19900;-75
2022/08/15 02:38:58;;;;;;;54.20;27.80;;;20.50;80.60;;;;;;6158589;23;20473;-76
2022/08/15 02:41:37;;;;;;;48.55;27.00;;;20.40;80.50;;;;;;6160115;23;20013;-76
2022/08/15 02:44:03;;;;;;;52.55;27.38;;;20.30;81.00;;;;;;6159191;23;20044;-75
2022/08/15 02:46:30;;;;;;;49.53;26.58;;;20.40;80.70;;;;;;6159962;23;20005;-76
2022/08/15 02:49:01;;;;;;;46.83;25.98;;;20.40;80.90;;;;;;6159134;23;20005;-75
2022/08/15 02:51:28;;;;;;;46.42;26.30;;;20.30;80.60;;;;;;6160059;23;20538;-75
2022/08/15 02:53:55;;;;;;;47.83;26.02;;;20.30;81.00;;;;;;6158114;23;20008;-75
2022/08/15 02:56:25;;;;;;;43.72;25.65;;;20.20;81.40;;;;;;6159948;23;20009;-75
2022/08/15 02:58:51;;;;;;;37.67;23.77;;;20.20;81.10;;;;;;6158033;23;20040;-75
2022/08/15 03:01:18;;;;;;;44.35;25.35;;;20.20;81.00;;;;;;6158446;23;20005;-76
2022/08/15 03:03:47;;;;;;;42.45;25.42;;;20.20;80.80;;;;;;6157797;23;20017;-75
2022/08/15 03:06:15;;;;;;;41.42;22.77;;;20.20;80.90;;;;;;6157937;23;20009;-76
2022/08/15 03:08:41;;;;;;;37.40;21.73;;;20.10;80.40;;;;;;6158891;23;20017;-76
2022/08/15 03:11:09;;;;;;;41.42;24.50;;;20.10;80.80;;;;;;6159938;23;20025;-75
2022/08/15 03:13:35;;;;;;;39.95;22.55;;;20.10;80.70;;;;;;6157720;23;19997;-76
2022/08/15 03:16:03;;;;;;;37.88;21.65;;;20.00;80.80;;;;;;6159185;23;20002;-76
2022/08/15 03:18:32;;;;;;;42.85;24.13;;;20.00;81.10;;;;;;6159769;23;20009;-75
2022/08/15 03:20:59;;;;;;;39.33;23.35;;;20.00;81.20;;;;;;6160246;23;20077;-76
2022/08/15 03:23:27;;;;;;;42.60;23.70;;;20.00;80.90;;;;;;6159744;23;20316;-76
2022/08/15 03:25:59;;;;;;;42.47;23.25;;;20.10;80.80;;;;;;6157799;23;20009;-76
2022/08/15 03:28:28;;;;;;;37.33;22.27;;;20.00;80.80;;;;;;6159528;23;20005;-75
2022/08/15 03:30:56;;;;;;;42.60;22.65;;;20.10;80.60;;;;;;6157909;23;20426;-75
2022/08/15 03:33:22;;;;;;;41.35;21.55;;;20.10;80.50;;;;;;6159932;23;20550;-75
2022/08/15 03:36:09;;;;;;;36.67;21.92;;;20.00;80.70;;;;;;6159371;23;20006;-76
2022/08/15 03:38:35;;;;;;;40.72;22.50;;;20.10;80.60;;;;;;6158041;23;20014;-76
2022/08/15 03:41:04;;;;;;;42.78;23.65;;;20.10;80.60;;;;;;6159241;23;20128;-76
2022/08/15 03:43:30;;;;;;;37.03;20.25;;;20.10;80.50;;;;;;6159873;23;20005;-76
2022/08/15 03:46:02;;;;;;;37.05;21.67;;;20.00;80.40;;;;;;6158159;23;20009;-76
2022/08/15 03:48:32;;;;;;;43.28;21.90;;;19.80;80.70;;;;;;6157800;23;20117;-76
2022/08/15 03:51:01;;;;;;;43.03;22.75;;;19.80;80.90;;;;;;6159465;23;20068;-75
2022/08/15 03:53:51;;;;;;;36.42;20.70;;;19.90;80.60;;;;;;6159479;23;20006;-76
2022/08/15 03:56:25;;;;;;;43.47;21.63;;;19.90;80.40;;;;;;6159477;23;20005;-75
2022/08/15 03:58:52;;;;;;;36.47;20.85;;;19.90;80.60;;;;;;6157879;23;20573;-76
2022/08/15 04:01:24;;;;;;;42.10;22.55;;;19.80;80.90;;;;;;6159292;23;20033;-76
2022/08/15 04:03:50;;;;;;;36.40;20.33;;;19.70;81.00;;;;;;6159597;23;20109;-76
2022/08/15 04:06:20;;;;;;;40.28;21.42;;;19.70;80.90;;;;;;6159118;23;20002;-76
2022/08/15 04:08:47;;;;;;;;;;;19.70;81.10;;;;;;6159681;23;20525;-76
2022/08/15 04:11:14;;;;;;;36.30;19.00;;;19.70;81.40;;;;;;6157977;23;19900;-75
2022/08/15 04:13:40;;;;;;;37.83;21.92;;;19.70;81.20;;;;;;6157962;23;20012;-76
2022/08/15 04:16:09;;;;;;;38.85;20.73;;;19.70;81.00;;;;;;6158820;23;20009;-75
2022/08/15 04:18:36;;;;;;;43.40;22.08;;;19.80;81.20;;;;;;6157887;23;20095;-75
2022/08/15 04:21:05;;;;;;;36.47;21.95;;;19.80;81.30;;;;;;6159587;23;20033;-76
2022/08/15 04:23:31;;;;;;;42.08;22.45;;;19.70;81.00;;;;;;6157480;23;20037;-76
2022/08/15 04:25:57;;;;;;;39.78;21.13;;;19.70;81.00;;;;;;6157539;23;20005;-76
2022/08/15 04:28:26;;;;;;;39.47;22.40;;;19.80;81.10;;;;;;6159051;23;20009;-76
2022/08/15 04:30:52;;;;;;;39.65;20.45;;;19.80;81.00;;;;;;6159064;23;20002;-76
2022/08/15 04:33:24;;;;;;;41.00;22.83;;;19.70;81.20;;;;;;6158712;23;20004;-75
2022/08/15 04:36:00;;;;;;;40.75;21.63;;;19.70;81.50;;;;;;6159064;23;20470;-76
2022/08/15 04:38:33;;;;;;;35.33;21.10;;;19.70;81.40;;;;;;6159431;23;20342;-75
2022/08/15 04:41:01;;;;;;;35.20;19.95;;;19.80;81.40;;;;;;6157280;23;20013;-75
2022/08/15 04:43:27;;;;;;;35.72;20.45;;;19.70;81.40;;;;;;6158895;23;20006;-76
2022/08/15 04:45:53;;;;;;;41.28;23.75;;;19.60;81.60;;;;;;6157265;23;20016;-76
2022/08/15 04:48:20;;;;;;;38.60;23.13;;;19.70;81.60;;;;;;6159187;23;20012;-76
2022/08/15 04:50:48;;;;;;;39.03;21.55;;;19.70;81.40;;;;;;6158778;23;20337;-76
2022/08/15 04:53:14;;;;;;;39.50;21.48;;;19.70;81.30;;;;;;6158951;23;19998;-76
2022/08/15 04:55:42;;;;;;;41.53;21.20;;;19.70;81.40;;;;;;6158620;23;20001;-76
2022/08/15 04:58:09;;;;;;;42.22;21.83;;;19.70;81.40;;;;;;6157495;23;20442;-75
2022/08/15 05:00:40;;;;;;;38.50;20.77;;;19.60;81.50;;;;;;6158355;23;20056;-76
2022/08/15 05:03:16;;;;;;;35.72;20.45;;;19.60;81.40;;;;;;6155747;23;20009;-75
2022/08/15 05:05:48;;;;;;;35.08;20.65;;;19.60;81.50;;;;;;6158730;23;20327;-76
2022/08/15 05:08:15;;;;;;;38.78;20.42;;;19.60;81.60;;;;;;6156732;23;20108;-76
2022/08/15 05:10:41;;;;;;;34.30;20.08;;;19.70;81.60;;;;;;6156958;23;20004;-76
2022/08/15 05:13:14;;;;;;;38.20;21.63;;;19.60;81.40;;;;;;6157336;23;20001;-76
2022/08/15 05:15:41;;;;;;;36.80;20.38;;;19.70;81.40;;;;;;6133896;23;20028;-76
2022/08/15 05:18:25;;;;;;;39.72;22.20;;;19.60;81.20;;;;;;6158150;23;20005;-76
2022/08/15 05:20:52;;;;;;;38.28;21.35;;;19.60;81.40;;;;;;6158411;23;20002;-76
2022/08/15 05:23:20;;;;;;;35.72;20.30;;;19.60;81.50;;;;;;6158438;23;20341;-76
2022/08/15 05:25:50;;;;;;;39.88;22.65;;;19.70;81.10;;;;;;6157360;23;20084;-76
2022/08/15 05:28:15;;;;;;;;;;;19.60;80.80;;;;;;6158875;23;20433;-76
2022/08/15 05:30:41;;;;;;;37.33;20.40;;;19.70;80.80;;;;;;6158724;23;19987;-75
2022/08/15 05:33:20;;;;;;;36.20;20.38;;;19.60;80.60;;;;;;6156753;23;20005;-75
2022/08/15 05:35:49;;;;;;;35.75;20.60;;;19.60;80.90;;;;;;6158568;23;19997;-76
2022/08/15 05:38:22;;;;;;;36.88;20.13;;;19.70;80.90;;;;;;6158474;23;20033;-76
2022/08/15 05:40:58;;;;;;;40.90;19.80;;;19.70;80.80;;;;;;6157232;23;20012;-76
2022/08/15 05:43:35;;;;;;;38.10;21.00;;;19.70;80.80;;;;;;6158340;23;20005;-76
2022/08/15 05:46:22;;;;;;;41.72;21.70;;;19.70;80.60;;;;;;6158386;23;20012;-76
2022/08/15 05:49:03;;;;;;;39.08;21.23;;;19.80;80.50;;;;;;6158315;23;20377;-76
2022/08/15 05:51:35;;;;;;;37.97;21.55;;;19.70;80.40;;;;;;6158518;23;20438;-75
2022/08/15 05:54:17;;;;;;;39.40;21.75;;;19.80;80.50;;;;;;6158353;23;20349;-76
2022/08/15 05:57:04;;;;;;;39.65;21.33;;;19.60;80.90;;;;;;6158429;23;20005;-76
2022/08/15 05:59:39;;;;;;;41.38;20.30;;;19.60;81.00;;;;;;6158377;23;20012;-76
2022/08/15 06:02:27;;;;;;;37.22;20.92;;;19.60;81.10;;;;;;6158235;23;20045;-76
2022/08/15 06:04:57;;;;;;;44.25;20.55;;;19.60;81.20;;;;;;6158393;23;20848;-76
2022/08/15 06:07:25;;;;;;;39.90;21.75;;;19.70;80.80;;;;;;6158567;23;20024;-76
2022/08/15 06:09:56;;;;;;;36.15;19.88;;;19.70;81.00;;;;;;6158252;23;20005;-76
2022/08/15 06:12:28;;;;;;;38.25;20.98;;;19.70;81.10;;;;;;6156670;23;20014;-75
2022/08/15 06:15:02;;;;;;;33.38;19.27;;;19.80;81.00;;;;;;6158348;23;20509;-76
2022/08/15 06:17:41;;;;;;;41.63;21.48;;;19.80;80.50;;;;;;6158294;23;20065;-76
2022/08/15 06:20:09;;;;;;;34.95;20.80;;;19.90;80.20;;;;;;6156645;23;20064;-76
2022/08/15 06:22:44;;;;;;;33.92;19.80;;;20.00;80.20;;;;;;6157483;23;20006;-76
2022/08/15 06:25:36;;;;;;;38.50;20.65;;;20.10;79.90;;;;;;6156564;23;20056;-77
2022/08/15 06:28:14;;;;;;;32.95;18.77;;;20.30;79.40;;;;;;6153264;23;20017;-78
2022/08/15 06:30:51;;;;;;;38.38;21.17;;;20.50;79.30;;;;;;6157934;23;19998;-79
2022/08/15 06:33:25;;;;;;;33.42;19.08;;;20.50;78.80;;;;;;6158005;23;19998;-78
2022/08/15 06:36:17;;;;;;;31.65;19.67;;;20.60;78.20;;;;;;6157832;23;20072;-78
2022/08/15 06:39:01;;;;;;;41.13;19.67;;;20.50;77.70;;;;;;6154671;23;20353;-80
2022/08/15 06:41:39;;;;;;;33.90;19.50;;;20.70;78.00;;;;;;6156350;23;20002;-79
2022/08/15 06:44:06;;;;;;;30.25;19.25;;;20.70;77.40;;;;;;6158411;23;20501;-77
2022/08/15 06:46:33;;;;;;;29.27;18.73;;;20.80;77.90;;;;;;6158604;23;20016;-78
2022/08/15 06:49:03;;;;;;;32.60;19.17;;;20.80;77.80;;;;;;6158131;23;20013;-76
2022/08/15 06:51:32;;;;;;;34.10;19.85;;;20.70;77.00;;;;;;6160585;23;20033;-78
2022/08/15 06:53:58;;;;;;;31.48;18.92;;;20.70;77.50;;;;;;6159856;23;20001;-77
2022/08/15 06:56:28;;;;;;;32.05;18.45;;;20.60;77.10;;;;;;6160008;23;20036;-77
2022/08/15 06:59:02;;;;;;;32.67;18.45;;;20.50;77.70;;;;;;6159550;23;20060;-77
2022/08/15 07:01:34;;;;;;;31.45;18.10;;;20.50;78.10;;;;;;6160134;23;20128;-77
2022/08/15 07:04:30;;;;;;;30.42;18.50;;;20.50;78.30;;;;;;6158149;23;20020;-79
2022/08/15 07:07:02;;;;;;;30.33;18.23;;;20.40;78.40;;;;;;6154397;23;20020;-77
2022/08/15 07:09:50;;;;;;;32.25;18.83;;;20.40;78.20;;;;;;6156845;23;20066;-79
2022/08/15 07:12:45;;;;;;;31.15;18.48;;;20.50;77.90;;;;;;6156728;23;20029;-78
2022/08/15 07:15:25;;;;;;;34.97;18.73;;;20.60;78.00;;;;;;6141803;23;20006;-78
2022/08/15 07:18:02;;;;;;;34.08;20.55;;;20.70;77.70;;;;;;6157282;23;20013;-79
2022/08/15 07:20:27;;;;;;;33.85;20.25;;;20.80;77.40;;;;;;6158212;23;20111;-79
2022/08/15 07:22:54;;;;;;;35.40;19.33;;;20.70;77.00;;;;;;6157489;23;20016;-78
2022/08/15 07:25:28;;;;;;;37.55;19.23;;;20.80;76.40;;;;;;6157537;23;20029;-79
2022/08/15 07:28:05;;;;;;;30.83;17.75;;;20.80;76.90;;;;;;6158057;23;20009;-79
2022/08/15 07:31:00;;;;;;;29.88;19.52;;;20.90;76.40;;;;;;6158920;23;20113;-79
2022/08/15 07:33:41;;;;;;;27.50;17.85;;;20.80;76.40;;;;;;6157152;23;20002;-79
2022/08/15 07:36:28;;;;;;;33.63;18.10;;;20.90;76.40;;;;;;6157133;23;20499;-78
2022/08/15 07:38:55;;;;;;;31.42;18.77;;;21.00;76.20;;;;;;6153308;23;20009;-78
2022/08/15 07:41:33;;;;;;;30.30;17.75;;;21.10;76.30;;;;;;6156853;23;20005;-78
2022/08/15 07:44:30;;;;;;;29.42;16.85;;;21.20;76.20;;;;;;6153620;23;20009;-79
2022/08/15 07:47:21;;;;;;;31.17;16.80;;;21.20;75.80;;;;;;6156206;23;20013;-79
2022/08/15 07:50:04;;;;;;;29.70;17.27;;;21.20;75.90;;;;;;6149470;23;20107;-79
2022/08/15 07:52:31;;;;;;;27.60;17.13;;;21.50;75.20;;;;;;6158606;23;20005;-78
2022/08/15 07:55:17;;;;;;;29.05;18.75;;;22.10;73.20;;;;;;6156930;23;20010;-79
2022/08/15 07:58:02;;;;;;;29.58;16.88;;;21.90;72.30;;;;;;6156839;23;20008;-78
2022/08/15 08:00:35;;;;;;;27.60;16.23;;;21.80;73.20;;;;;;6157478;23;20073;-78
2022/08/15 08:03:00;;;;;;;28.83;17.73;;;21.90;73.00;;;;;;6152191;23;20005;-78
2022/08/15 08:05:35;;;;;;;28.38;17.48;;;22.30;73.20;;;;;;6156227;23;20009;-79
2022/08/15 08:08:09;;;;;;;28.05;16.40;;;22.60;71.00;;;;;;6156257;23;20025;-78
2022/08/15 08:11:29;;;;;;;27.70;17.17;;;22.70;70.70;;;;;;6156693;23;20080;-77
2022/08/15 08:14:19;;;;;;;24.40;16.75;;;22.50;71.40;;;;;;6182109;23;20006;-78
2022/08/15 08:17:09;;;;;;;27.73;16.75;;;22.20;71.30;;;;;;6158073;23;19997;-78
2022/08/15 08:20:03;;;;;;;24.77;15.68;;;22.20;72.30;;;;;;6157062;23;20014;-78
2022/08/15 08:22:53;;;;;;;34.30;17.55;;;22.10;71.90;;;;;;6157845;23;20031;-77
2022/08/15 08:25:57;;;;;;;31.98;17.13;;;22.10;72.40;;;;;;6157102;23;20012;-79
2022/08/15 08:28:58;;;;;;;33.33;18.48;;;22.00;72.30;;;;;;6157835;23;20017;-78
2022/08/15 08:32:02;;;;;;;29.58;18.05;;;22.10;72.50;;;;;;6134825;23;20450;-77
2022/08/15 08:34:45;;;;;;;28.58;17.58;;;22.30;72.10;;;;;;6158032;23;20009;-76
2022/08/15 08:37:42;;;;;;;27.90;15.45;;;22.40;72.10;;;;;;6158648;23;20025;-81
2022/08/15 08:43:49;;;;;;;26.30;17.48;;;22.80;70.90;;;;;;6156469;23;20012;-79
2022/08/15 08:46:30;;;;;;;24.65;14.82;;;22.80;70.70;;;;;;6155736;23;20349;-79
2022/08/15 08:49:20;;;;;;;27.55;17.55;;;22.80;70.30;;;;;;6157817;23;20008;-78
2022/08/15 08:52:06;;;;;;;24.33;15.88;;;23.00;69.70;;;;;;6152808;23;20009;-79
2022/08/15 08:54:35;;;;;;;26.15;16.55;;;23.30;69.50;;;;;;6145695;23;20013;-79
2022/08/15 08:57:15;;;;;;;31.23;16.75;;;23.90;67.10;;;;;;6156725;23;20008;-79
2022/08/15 08:59:50;;;;;;;;;;;23.70;66.50;;;;;;6155812;23;20013;-79
2022/08/15 09:02:26;;;;;;;25.45;15.88;;;23.50;66.00;;;;;;6153972;23;19936;-79
2022/08/15 09:05:01;;;;;;;23.70;16.05;;;23.90;65.70;;;;;;6155999;23;20005;-80
2022/08/15 09:07:32;;;;;;;27.17;17.02;;;24.40;64.50;;;;;;6155498;23;20512;-79
2022/08/15 09:10:00;;;;;;;27.20;15.85;;;24.90;64.60;;;;;;6154636;23;20005;-80
2022/08/15 09:15:38;;;;;;;26.05;15.05;;;25.90;61.40;;;;;;6157705;23;20833;-79
2022/08/15 09:18:17;;;;;;;27.67;16.15;;;25.30;60.70;;;;;;6156707;23;20014;-82
2022/08/15 09:20:46;;;;;;;29.33;16.30;;;25.10;61.90;;;;;;6158289;23;20010;-78
2022/08/15 09:23:15;;;;;;;27.17;16.92;;;25.40;61.40;;;;;;6156216;23;20060;-78
2022/08/15 09:25:46;;;;;;;;;;;26.10;60.60;;;;;;6157107;23;20097;-78
2022/08/15 09:28:34;;;;;;;22.20;15.10;;;26.70;58.80;;;;;;6158038;23;19908;-77
2022/08/15 09:31:20;;;;;;;24.30;15.13;;;27.00;57.90;;;;;;6157931;23;20009;-78
2022/08/15 09:34:07;;;;;;;20.40;14.98;;;27.30;56.50;;;;;;6156404;23;20006;-78
2022/08/15 09:37:03;;;;;;;20.70;14.38;;;26.80;55.80;;;;;;6156674;23;20032;-78
2022/08/15 09:40:07;;;;;;;22.88;14.60;;;26.10;57.70;;;;;;6156049;23;20009;-78
2022/08/15 09:43:06;;;;;;;22.35;14.70;;;25.70;58.60;;;;;;6151795;23;20407;-79
2022/08/15 09:45:44;;;;;;;24.13;14.57;;;25.40;59.10;;;;;;6156333;23;20044;-78
2022/08/15 09:48:28;;;;;;;24.73;14.75;;;25.60;59.30;;;;;;6158059;23;20016;-78
2022/08/15 09:50:54;;;;;;;20.80;14.68;;;25.40;59.80;;;;;;6154639;23;20088;-78
2022/08/15 09:53:45;;;;;;;20.55;14.38;;;25.30;59.30;;;;;;6155401;23;20013;-78
2022/08/15 09:56:17;;;;;;;22.30;13.95;;;25.50;59.80;;;;;;6156481;23;20005;-77
2022/08/15 09:59:02;;;;;;;20.25;13.25;;;25.80;59.50;;;;;;6156313;23;20037;-78
2022/08/15 10:01:29;;;;;;;18.88;13.98;;;25.90;59.10;;;;;;6155924;23;20013;-78
2022/08/15 10:04:07;;;;;;;23.08;15.63;;;26.10;59.00;;;;;;6156646;23;20016;-78
2022/08/15 10:06:52;;;;;;;19.17;13.82;;;25.80;57.70;;;;;;6157479;23;20002;-77
2022/08/15 10:09:28;;;;;;;21.52;15.18;;;25.80;58.30;;;;;;6157806;23;20017;-78
2022/08/15 10:11:56;;;;;;;19.90;13.98;;;25.70;58.70;;;;;;6157883;23;20012;-80
2022/08/15 10:14:48;;;;;;;17.80;13.20;;;25.70;59.40;;;;;;6156040;23;20012;-79
2022/08/15 10:17:33;;;;;;;20.17;13.02;;;26.00;58.30;;;;;;6157156;23;20017;-80
2022/08/15 10:20:17;;;;;;;17.70;12.40;;;26.10;57.90;;;;;;6157880;23;20106;-83
2022/08/15 10:22:59;;;;;;;18.08;13.65;;;26.00;57.40;;;;;;6156719;23;20027;-82
2022/08/15 10:25:56;;;;;;;22.77;14.00;;;26.30;57.20;;;;;;6156528;23;20065;-84
2022/08/15 10:28:24;;;;;;;19.60;11.02;;;26.90;55.80;;;;;;6158112;23;20009;-70
2022/08/15 10:31:16;;;;;;;17.35;10.80;;;27.20;55.00;;;;;;6156435;23;20520;-70
2022/08/15 10:33:52;;;;;;;12.73;10.48;;;27.30;56.30;;;;;;6158042;23;19998;-71
2022/08/15 10:36:25;;;;;;;17.55;12.18;;;27.30;56.10;;;;;;6156156;23;20005;-70
2022/08/15 10:38:57;;;;;;;14.80;11.35;;;27.30;56.90;;;;;;6159429;23;20008;-72
2022/08/15 10:41:52;;;;;;;14.82;11.00;;;27.20;57.50;;;;;;6159973;23;20087;-71
2022/08/15 10:44:57;;;;;;;16.58;11.85;;;27.30;57.20;;;;;;6159787;23;20010;-71
2022/08/15 10:47:47;;;;;;;18.52;12.30;;;27.10;56.30;;;;;;6148846;23;20088;-71
2022/08/15 10:50:27;;;;;;;15.55;11.35;;;27.00;56.00;;;;;;6159112;23;20429;-72
2022/08/15 10:53:07;;;;;;;14.20;10.38;;;27.20;56.50;;;;;;6162235;23;20008;-71
2022/08/15 10:55:36;;;;;;;13.98;10.80;;;27.40;56.10;;;;;;6159462;23;20489;-73
2022/08/15 10:58:10;;;;;;;;;;;27.10;54.90;;;;;;6161106;23;20005;-70
2022/08/15 11:01:06;;;;;;;16.95;11.57;;;26.90;55.50;;;;;;6159508;23;19901;-71
2022/08/15 11:04:05;;;;;;;14.85;9.35;;;27.30;55.10;;;;;;6159973;23;20479;-72
2022/08/15 11:06:37;;;;;;;14.98;9.75;;;27.00;54.90;;;;;;6155856;23;20009;-71
2022/08/15 11:09:17;;;;;;;16.92;10.57;;;26.80;55.20;;;;;;6159866;23;20393;-71
2022/08/15 11:12:01;;;;;;;13.38;9.80;;;26.70;56.10;;;;;;6159653;23;20113;-71
2022/08/15 11:14:31;;;;;;;10.63;7.97;;;26.70;55.60;;;;;;6159296;23;20013;-71
2022/08/15 11:16:59;;;;;;;15.73;9.88;;;26.40;55.70;;;;;;6159424;23;20005;-72
2022/08/15 11:19:32;;;;;;;16.00;9.15;;;26.50;56.50;;;;;;6159528;23;20346;-70
2022/08/15 11:22:03;;;;;;;15.43;10.70;;;26.40;54.70;;;;;;6159053;23;20009;-70
2022/08/15 11:24:37;;;;;;;11.38;9.20;;;26.50;55.90;;;;;;6158953;23;20005;-71
2022/08/15 11:27:24;;;;;;;16.42;9.68;;;26.70;55.00;;;;;;6158812;23;20028;-71
2022/08/15 11:29:52;;;;;;;13.50;9.77;;;26.80;54.80;;;;;;6158773;23;20056;-72
2022/08/15 11:32:24;;;;;;;14.85;9.63;;;27.10;54.10;;;;;;6157600;23;20076;-73
2022/08/15 11:34:51;;;;;;;11.80;9.15;;;27.10;53.70;;;;;;6159220;23;20088;-75
2022/08/15 11:37:19;;;;;;;11.77;8.35;;;27.00;53.70;;;;;;6158907;23;20085;-70
2022/08/15 11:39:58;;;;;;;19.75;11.57;;;27.00;53.20;;;;;;6159266;23;20319;-71
2022/08/15 11:42:27;;;;;;;13.70;10.07;;;27.20;54.00;;;;;;6155007;23;20013;-71
2022/08/15 11:44:59;;;;;;;11.20;9.88;;;27.30;54.40;;;;;;6158020;23;20012;-70
2022/08/15 11:47:29;;;;;;;14.93;9.07;;;27.30;53.90;;;;;;6157498;23;20320;-70
2022/08/15 11:49:59;;;;;;;13.73;9.85;;;27.40;52.60;;;;;;6158039;23;20013;-70
2022/08/15 11:52:29;;;;;;;13.30;10.05;;;27.40;52.60;;;;;;6157916;23;20069;-70
2022/08/15 11:55:13;;;;;;;15.80;10.50;;;27.10;53.00;;;;;;6157972;23;20337;-70
2022/08/15 11:57:47;;;;;;;17.45;10.88;;;27.20;53.80;;;;;;6158340;23;20001;-70
2022/08/15 12:00:36;;;;;;;14.50;9.65;;;27.30;53.30;;;;;;6158069;23;20076;-70
2022/08/15 12:03:18;;;;;;;16.58;9.50;;;27.20;53.70;;;;;;6157332;23;20020;-70
2022/08/15 12:05:44;;;;;;;16.33;10.77;;;27.00;54.20;;;;;;6157869;23;20006;-70
2022/08/15 12:08:10;;;;;;;15.85;10.20;;;27.20;54.10;;;;;;6157405;23;20037;-70
2022/08/15 12:10:40;;;;;;;14.82;9.40;;;27.00;54.10;;;;;;6157596;23;20005;-70
2022/08/15 12:13:08;;;;;;;13.43;9.27;;;26.80;53.90;;;;;;6158066;23;19997;-70
2022/08/15 12:15:33;;;;;;;12.70;10.32;;;26.70;55.20;;;;;;6157556;23;20524;-70
2022/08/15 12:18:04;;;;;;;14.20;10.30;;;26.70;55.00;;;;;;6153628;23;20006;-70
2022/08/15 12:20:39;;;;;;;14.77;10.60;;;26.70;55.30;;;;;;6156215;23;20049;-70
2022/08/15 12:23:53;;;;;;;19.00;10.05;;;26.80;55.90;;;;;;6157367;23;20008;-84
2022/08/15 12:26:20;;;;;;;21.85;13.07;;;26.90;55.70;;;;;;6097847;23;20523;-84
2022/08/15 12:28:46;;;;;;;16.33;11.35;;;27.00;55.40;;;;;;6155020;23;20014;-85
2022/08/15 12:31:45;;;;;;;13.00;9.73;;;27.10;55.30;;;;;;6154474;23;20048;-85
2022/08/15 12:34:27;;;;;;;16.25;9.75;;;27.10;54.10;;;;;;6107685;23;20089;-84
2022/08/15 12:36:54;;;;;;;15.35;11.15;;;27.20;54.90;;;;;;6156665;23;20096;-84
2022/08/15 12:39:20;;;;;;;12.48;10.30;;;27.10;54.40;;;;;;6151903;23;20033;-85
2022/08/15 12:41:50;;;;;;;14.77;10.27;;;27.30;54.40;;;;;;6157283;23;20055;-84
2022/08/15 12:44:21;;;;;;;;;;;27.30;54.20;;;;;;6158391;23;20001;-87
2022/08/15 12:46:47;;;;;;;14.68;9.95;;;26.90;54.30;;;;;;6155737;23;19901;-85
2022/08/15 12:49:12;;;;;;;20.23;10.63;;;26.80;54.40;;;;;;6155171;23;20315;-85
2022/08/15 12:51:38;;;;;;;13.35;10.07;;;26.70;54.40;;;;;;6155027;23;20033;-84
2022/08/15 12:54:04;;;;;;;14.07;10.07;;;26.80;55.00;;;;;;6157962;23;20068;-85
2022/08/15 12:56:29;;;;;;;14.75;10.77;;;26.80;55.00;;;;;;6158474;23;20004;-85
2022/08/15 12:58:55;;;;;;;15.65;10.18;;;26.80;54.80;;;;;;6157730;23;20001;-82
2022/08/15 13:01:21;;;;;;;15.68;10.70;;;26.80;55.70;;;;;;6157052;23;20097;-78
2022/08/15 13:03:48;;;;;;;17.05;10.13;;;26.80;55.40;;;;;;6155540;23;20099;-83
2022/08/15 13:06:28;;;;;;;18.25;11.52;;;26.80;55.20;;;;;;6158652;23;19998;-84
2022/08/15 13:08:54;;;;;;;13.90;10.25;;;26.70;56.10;;;;;;6158317;23;20023;-84
2022/08/15 13:11:21;;;;;;;14.10;10.48;;;26.80;56.50;;;;;;6156686;23;20096;-85
2022/08/15 13:13:49;;;;;;;16.48;10.30;;;26.80;56.70;;;;;;6158330;23;20060;-84
2022/08/15 13:16:16;;;;;;;13.15;10.35;;;26.70;55.90;;;;;;6155981;23;20072;-84